sensor_id;sensor_type;location;lat;lon;timestamp;P1;durP1;ratioP1;P2;durP2;ratioP2
10805;SDS011;5455;53.224;6.000;2023-10-31T00:01:21;4.73;;;1.80;;
10805;SDS011;5455;53.224;6.000;2023-10-31T00:03:48;2.97;;;1.60;;
10805;SDS011;5455;53.224;6.000;2023-10-31T00:06:15;2.97;;;1.57;;
10805;SDS011;5455;53.224;6.000;2023-10-31T00:08:42;3.93;;;1.50;;
10805;SDS011;5455;53.224;6.000;2023-10-31T00:11:09;4.10;;;1.50;;
10805;SDS011;5455;53.224;6.000;2023-10-31T00:13:36;3.07;;;1.37;;
10805;SDS011;5455;53.224;6.000;2023-10-31T00:16:04;3.33;;;1.50;;
10805;SDS011;5455;53.224;6.000;2023-10-31T00:18:31;4.03;;;1.40;;
10805;SDS011;5455;53.224;6.000;2023-10-31T00:20:58;2.60;;;1.17;;
10805;SDS011;5455;53.224;6.000;2023-10-31T00:23:25;3.83;;;1.60;;
10805;SDS011;5455;53.224;6.000;2023-10-31T00:25:52;3.77;;;1.30;;
10805;SDS011;5455;53.224;6.000;2023-10-31T00:28:19;1.83;;;1.27;;
10805;SDS011;5455;53.224;6.000;2023-10-31T00:30:46;4.17;;;1.43;;
10805;SDS011;5455;53.224;6.000;2023-10-31T00:33:13;2.43;;;1.10;;
10805;SDS011;5455;53.224;6.000;2023-10-31T00:35:40;2.07;;;1.13;;
10805;SDS011;5455;53.224;6.000;2023-10-31T00:38:08;1.77;;;1.03;;
10805;SDS011;5455;53.224;6.000;2023-10-31T00:40:35;1.87;;;0.97;;
10805;SDS011;5455;53.224;6.000;2023-10-31T00:43:02;1.67;;;1.00;;
10805;SDS011;5455;53.224;6.000;2023-10-31T00:45:29;1.83;;;1.00;;
10805;SDS011;5455;53.224;6.000;2023-10-31T00:47:56;3.07;;;1.10;;
10805;SDS011;5455;53.224;6.000;2023-10-31T00:50:23;1.70;;;1.30;;
10805;SDS011;5455;53.224;6.000;2023-10-31T00:52:50;4.13;;;1.20;;
10805;SDS011;5455;53.224;6.000;2023-10-31T00:55:17;1.73;;;1.20;;
10805;SDS011;5455;53.224;6.000;2023-10-31T00:57:44;1.80;;;1.07;;
10805;SDS011;5455;53.224;6.000;2023-10-31T01:00:11;2.17;;;0.90;;
10805;SDS011;5455;53.224;6.000;2023-10-31T01:02:39;3.67;;;1.23;;
10805;SDS011;5455;53.224;6.000;2023-10-31T01:05:06;2.47;;;1.07;;
10805;SDS011;5455;53.224;6.000;2023-10-31T01:07:34;4.60;;;1.23;;
10805;SDS011;5455;53.224;6.000;2023-10-31T01:10:02;2.63;;;1.10;;
10805;SDS011;5455;53.224;6.000;2023-10-31T01:12:30;2.03;;;0.80;;
10805;SDS011;5455;53.224;6.000;2023-10-31T01:14:57;3.30;;;0.80;;
10805;SDS011;5455;53.224;6.000;2023-10-31T01:17:24;1.17;;;0.90;;
10805;SDS011;5455;53.224;6.000;2023-10-31T01:19:51;2.97;;;1.17;;
10805;SDS011;5455;53.224;6.000;2023-10-31T01:22:18;3.83;;;1.17;;
10805;SDS011;5455;53.224;6.000;2023-10-31T01:24:45;3.37;;;1.00;;
10805;SDS011;5455;53.224;6.000;2023-10-31T01:27:13;2.63;;;0.90;;
10805;SDS011;5455;53.224;6.000;2023-10-31T01:29:40;2.73;;;1.07;;
10805;SDS011;5455;53.224;6.000;2023-10-31T01:32:07;2.40;;;0.93;;
10805;SDS011;5455;53.224;6.000;2023-10-31T01:34:47;1.57;;;0.97;;
10805;SDS011;5455;53.224;6.000;2023-10-31T01:37:14;1.70;;;0.90;;
10805;SDS011;5455;53.224;6.000;2023-10-31T01:39:42;4.60;;;1.20;;
10805;SDS011;5455;53.224;6.000;2023-10-31T01:42:09;3.97;;;1.10;;
10805;SDS011;5455;53.224;6.000;2023-10-31T01:44:36;1.27;;;0.80;;
10805;SDS011;5455;53.224;6.000;2023-10-31T01:47:03;6.10;;;1.00;;
10805;SDS011;5455;53.224;6.000;2023-10-31T01:49:30;1.97;;;1.00;;
10805;SDS011;5455;53.224;6.000;2023-10-31T01:52:00;1.90;;;1.00;;
10805;SDS011;5455;53.224;6.000;2023-10-31T01:54:29;1.07;;;0.90;;
10805;SDS011;5455;53.224;6.000;2023-10-31T01:56:56;1.13;;;1.00;;
10805;SDS011;5455;53.224;6.000;2023-10-31T01:59:25;3.03;;;1.20;;
10805;SDS011;5455;53.224;6.000;2023-10-31T02:01:53;2.77;;;1.50;;
10805;SDS011;5455;53.224;6.000;2023-10-31T02:04:22;5.47;;;1.30;;
10805;SDS011;5455;53.224;6.000;2023-10-31T02:06:49;4.20;;;1.10;;
10805;SDS011;5455;53.224;6.000;2023-10-31T02:09:17;3.23;;;1.20;;
10805;SDS011;5455;53.224;6.000;2023-10-31T02:11:44;2.10;;;1.03;;
10805;SDS011;5455;53.224;6.000;2023-10-31T02:14:11;4.30;;;0.90;;
10805;SDS011;5455;53.224;6.000;2023-10-31T02:16:38;3.77;;;0.83;;
10805;SDS011;5455;53.224;6.000;2023-10-31T02:19:06;2.93;;;0.87;;
10805;SDS011;5455;53.224;6.000;2023-10-31T02:21:33;2.33;;;0.83;;
10805;SDS011;5455;53.224;6.000;2023-10-31T02:24:01;2.37;;;0.90;;
10805;SDS011;5455;53.224;6.000;2023-10-31T02:26:30;4.33;;;0.90;;
10805;SDS011;5455;53.224;6.000;2023-10-31T02:28:59;2.70;;;1.00;;
10805;SDS011;5455;53.224;6.000;2023-10-31T02:31:28;2.30;;;1.13;;
10805;SDS011;5455;53.224;6.000;2023-10-31T02:33:55;1.97;;;0.70;;
10805;SDS011;5455;53.224;6.000;2023-10-31T02:36:22;3.53;;;0.90;;
10805;SDS011;5455;53.224;6.000;2023-10-31T02:38:49;2.10;;;0.90;;
10805;SDS011;5455;53.224;6.000;2023-10-31T02:41:16;1.40;;;0.83;;
10805;SDS011;5455;53.224;6.000;2023-10-31T02:43:43;2.83;;;1.00;;
10805;SDS011;5455;53.224;6.000;2023-10-31T02:46:11;3.23;;;0.80;;
10805;SDS011;5455;53.224;6.000;2023-10-31T02:48:40;4.70;;;0.80;;
10805;SDS011;5455;53.224;6.000;2023-10-31T02:51:08;3.37;;;0.97;;
10805;SDS011;5455;53.224;6.000;2023-10-31T02:53:35;3.03;;;0.80;;
10805;SDS011;5455;53.224;6.000;2023-10-31T02:56:03;2.00;;;0.90;;
10805;SDS011;5455;53.224;6.000;2023-10-31T02:58:31;3.80;;;1.00;;
10805;SDS011;5455;53.224;6.000;2023-10-31T03:00:58;4.00;;;1.00;;
10805;SDS011;5455;53.224;6.000;2023-10-31T03:03:25;3.40;;;0.70;;
10805;SDS011;5455;53.224;6.000;2023-10-31T03:05:52;4.33;;;1.00;;
10805;SDS011;5455;53.224;6.000;2023-10-31T03:08:19;6.17;;;1.10;;
10805;SDS011;5455;53.224;6.000;2023-10-31T03:10:47;3.53;;;1.20;;
10805;SDS011;5455;53.224;6.000;2023-10-31T03:13:19;4.97;;;1.23;;
10805;SDS011;5455;53.224;6.000;2023-10-31T03:15:46;3.20;;;1.17;;
10805;SDS011;5455;53.224;6.000;2023-10-31T03:18:14;3.53;;;1.07;;
10805;SDS011;5455;53.224;6.000;2023-10-31T03:20:43;4.43;;;1.00;;
10805;SDS011;5455;53.224;6.000;2023-10-31T03:23:12;3.27;;;0.90;;
10805;SDS011;5455;53.224;6.000;2023-10-31T03:25:40;3.60;;;1.00;;
10805;SDS011;5455;53.224;6.000;2023-10-31T03:28:17;4.23;;;0.90;;
10805;SDS011;5455;53.224;6.000;2023-10-31T03:30:49;3.93;;;1.17;;
10805;SDS011;5455;53.224;6.000;2023-10-31T03:33:16;2.93;;;1.00;;
10805;SDS011;5455;53.224;6.000;2023-10-31T03:35:44;3.37;;;0.97;;
10805;SDS011;5455;53.224;6.000;2023-10-31T03:38:12;3.73;;;0.90;;
10805;SDS011;5455;53.224;6.000;2023-10-31T03:40:41;3.30;;;1.00;;
10805;SDS011;5455;53.224;6.000;2023-10-31T03:43:11;2.23;;;0.67;;
10805;SDS011;5455;53.224;6.000;2023-10-31T03:45:38;4.40;;;1.00;;
10805;SDS011;5455;53.224;6.000;2023-10-31T03:48:06;1.13;;;0.63;;
10805;SDS011;5455;53.224;6.000;2023-10-31T03:50:33;4.10;;;1.10;;
10805;SDS011;5455;53.224;6.000;2023-10-31T03:53:00;4.57;;;0.77;;
10805;SDS011;5455;53.224;6.000;2023-10-31T03:55:28;3.60;;;0.60;;
10805;SDS011;5455;53.224;6.000;2023-10-31T03:57:56;2.23;;;0.70;;
10805;SDS011;5455;53.224;6.000;2023-10-31T04:00:23;2.10;;;0.70;;
10805;SDS011;5455;53.224;6.000;2023-10-31T04:02:50;1.87;;;0.93;;
10805;SDS011;5455;53.224;6.000;2023-10-31T04:05:18;1.53;;;0.43;;
10805;SDS011;5455;53.224;6.000;2023-10-31T04:07:45;4.03;;;0.53;;
10805;SDS011;5455;53.224;6.000;2023-10-31T04:10:13;0.80;;;0.43;;
10805;SDS011;5455;53.224;6.000;2023-10-31T04:12:40;2.43;;;0.70;;
10805;SDS011;5455;53.224;6.000;2023-10-31T04:15:08;1.50;;;0.63;;
10805;SDS011;5455;53.224;6.000;2023-10-31T04:17:36;1.70;;;0.50;;
10805;SDS011;5455;53.224;6.000;2023-10-31T04:20:03;2.20;;;0.70;;
10805;SDS011;5455;53.224;6.000;2023-10-31T04:22:31;1.13;;;0.40;;
10805;SDS011;5455;53.224;6.000;2023-10-31T04:24:58;1.93;;;0.50;;
10805;SDS011;5455;53.224;6.000;2023-10-31T04:27:25;3.57;;;0.70;;
10805;SDS011;5455;53.224;6.000;2023-10-31T04:29:52;1.50;;;0.60;;
10805;SDS011;5455;53.224;6.000;2023-10-31T04:32:18;2.30;;;0.57;;
10805;SDS011;5455;53.224;6.000;2023-10-31T04:34:45;2.37;;;0.60;;
10805;SDS011;5455;53.224;6.000;2023-10-31T04:37:13;1.20;;;0.60;;
10805;SDS011;5455;53.224;6.000;2023-10-31T04:39:40;1.33;;;0.40;;
10805;SDS011;5455;53.224;6.000;2023-10-31T04:42:07;3.03;;;0.60;;
10805;SDS011;5455;53.224;6.000;2023-10-31T04:44:34;0.77;;;0.40;;
10805;SDS011;5455;53.224;6.000;2023-10-31T04:47:01;1.07;;;0.40;;
10805;SDS011;5455;53.224;6.000;2023-10-31T04:49:28;2.00;;;0.50;;
10805;SDS011;5455;53.224;6.000;2023-10-31T04:51:55;1.20;;;0.23;;
10805;SDS011;5455;53.224;6.000;2023-10-31T04:54:22;0.50;;;0.30;;
10805;SDS011;5455;53.224;6.000;2023-10-31T04:56:49;2.00;;;0.40;;
10805;SDS011;5455;53.224;6.000;2023-10-31T04:59:16;2.93;;;0.63;;
10805;SDS011;5455;53.224;6.000;2023-10-31T05:01:50;0.90;;;0.63;;
10805;SDS011;5455;53.224;6.000;2023-10-31T05:04:17;1.20;;;0.40;;
10805;SDS011;5455;53.224;6.000;2023-10-31T05:06:45;1.50;;;0.40;;
10805;SDS011;5455;53.224;6.000;2023-10-31T05:09:12;1.20;;;0.27;;
10805;SDS011;5455;53.224;6.000;2023-10-31T05:11:41;1.37;;;0.50;;
10805;SDS011;5455;53.224;6.000;2023-10-31T05:14:08;3.63;;;0.50;;
10805;SDS011;5455;53.224;6.000;2023-10-31T05:16:43;1.53;;;0.37;;
10805;SDS011;5455;53.224;6.000;2023-10-31T05:19:10;0.63;;;0.30;;
10805;SDS011;5455;53.224;6.000;2023-10-31T05:21:37;1.27;;;0.47;;
10805;SDS011;5455;53.224;6.000;2023-10-31T05:24:05;1.67;;;0.47;;
10805;SDS011;5455;53.224;6.000;2023-10-31T05:26:32;2.00;;;0.40;;
10805;SDS011;5455;53.224;6.000;2023-10-31T05:28:59;1.70;;;0.30;;
10805;SDS011;5455;53.224;6.000;2023-10-31T05:31:26;0.70;;;0.30;;
10805;SDS011;5455;53.224;6.000;2023-10-31T05:33:53;2.00;;;0.43;;
10805;SDS011;5455;53.224;6.000;2023-10-31T05:36:20;1.20;;;0.50;;
10805;SDS011;5455;53.224;6.000;2023-10-31T05:38:48;0.90;;;0.30;;
10805;SDS011;5455;53.224;6.000;2023-10-31T05:41:15;0.93;;;0.50;;
10805;SDS011;5455;53.224;6.000;2023-10-31T05:43:42;0.97;;;0.63;;
10805;SDS011;5455;53.224;6.000;2023-10-31T05:46:09;2.17;;;0.47;;
10805;SDS011;5455;53.224;6.000;2023-10-31T05:48:37;2.13;;;0.50;;
10805;SDS011;5455;53.224;6.000;2023-10-31T05:51:12;1.27;;;0.60;;
10805;SDS011;5455;53.224;6.000;2023-10-31T05:53:41;0.87;;;0.40;;
10805;SDS011;5455;53.224;6.000;2023-10-31T05:56:11;1.10;;;0.50;;
10805;SDS011;5455;53.224;6.000;2023-10-31T05:58:39;0.97;;;0.40;;
10805;SDS011;5455;53.224;6.000;2023-10-31T06:01:07;1.40;;;0.57;;
10805;SDS011;5455;53.224;6.000;2023-10-31T06:03:34;1.50;;;0.60;;
10805;SDS011;5455;53.224;6.000;2023-10-31T06:06:01;1.03;;;0.60;;
10805;SDS011;5455;53.224;6.000;2023-10-31T06:08:29;1.63;;;0.60;;
10805;SDS011;5455;53.224;6.000;2023-10-31T06:10:56;1.43;;;0.47;;
10805;SDS011;5455;53.224;6.000;2023-10-31T06:13:23;1.90;;;0.67;;
10805;SDS011;5455;53.224;6.000;2023-10-31T06:15:54;1.10;;;0.53;;
10805;SDS011;5455;53.224;6.000;2023-10-31T06:18:26;1.70;;;0.70;;
10805;SDS011;5455;53.224;6.000;2023-10-31T06:20:53;1.37;;;0.60;;
10805;SDS011;5455;53.224;6.000;2023-10-31T06:23:20;1.37;;;0.63;;
10805;SDS011;5455;53.224;6.000;2023-10-31T06:25:47;1.03;;;0.47;;
10805;SDS011;5455;53.224;6.000;2023-10-31T06:28:14;3.47;;;0.90;;
10805;SDS011;5455;53.224;6.000;2023-10-31T06:30:41;2.03;;;0.87;;
10805;SDS011;5455;53.224;6.000;2023-10-31T06:33:09;1.63;;;0.60;;
10805;SDS011;5455;53.224;6.000;2023-10-31T06:35:37;1.90;;;0.60;;
10805;SDS011;5455;53.224;6.000;2023-10-31T06:38:04;2.10;;;0.67;;
10805;SDS011;5455;53.224;6.000;2023-10-31T06:40:31;2.40;;;0.63;;
10805;SDS011;5455;53.224;6.000;2023-10-31T06:42:59;3.00;;;0.90;;
10805;SDS011;5455;53.224;6.000;2023-10-31T06:45:26;2.40;;;1.30;;
10805;SDS011;5455;53.224;6.000;2023-10-31T06:47:53;2.30;;;0.83;;
10805;SDS011;5455;53.224;6.000;2023-10-31T06:50:20;2.33;;;0.50;;
10805;SDS011;5455;53.224;6.000;2023-10-31T06:52:47;1.57;;;0.53;;
10805;SDS011;5455;53.224;6.000;2023-10-31T06:55:15;1.70;;;0.57;;
10805;SDS011;5455;53.224;6.000;2023-10-31T06:57:42;1.17;;;0.50;;
10805;SDS011;5455;53.224;6.000;2023-10-31T07:00:13;2.10;;;0.50;;
10805;SDS011;5455;53.224;6.000;2023-10-31T07:02:41;0.20;;;0.20;;
10805;SDS011;5455;53.224;6.000;2023-10-31T07:05:08;1.07;;;0.33;;
10805;SDS011;5455;53.224;6.000;2023-10-31T07:07:36;0.80;;;0.30;;
10805;SDS011;5455;53.224;6.000;2023-10-31T07:10:03;0.63;;;0.20;;
10805;SDS011;5455;53.224;6.000;2023-10-31T07:12:30;0.60;;;0.37;;
10805;SDS011;5455;53.224;6.000;2023-10-31T07:14:57;0.73;;;0.20;;
10805;SDS011;5455;53.224;6.000;2023-10-31T07:17:26;1.20;;;0.30;;
10805;SDS011;5455;53.224;6.000;2023-10-31T07:19:54;0.73;;;0.20;;
10805;SDS011;5455;53.224;6.000;2023-10-31T07:22:21;1.60;;;0.30;;
10805;SDS011;5455;53.224;6.000;2023-10-31T07:24:48;2.70;;;0.60;;
10805;SDS011;5455;53.224;6.000;2023-10-31T07:27:15;1.60;;;0.40;;
10805;SDS011;5455;53.224;6.000;2023-10-31T07:29:42;1.70;;;0.40;;
10805;SDS011;5455;53.224;6.000;2023-10-31T07:32:09;0.80;;;0.30;;
10805;SDS011;5455;53.224;6.000;2023-10-31T07:34:40;0.60;;;0.20;;
10805;SDS011;5455;53.224;6.000;2023-10-31T07:37:08;2.33;;;0.40;;
10805;SDS011;5455;53.224;6.000;2023-10-31T07:39:36;1.47;;;0.40;;
10805;SDS011;5455;53.224;6.000;2023-10-31T07:42:03;1.70;;;0.27;;
10805;SDS011;5455;53.224;6.000;2023-10-31T07:44:30;1.30;;;0.30;;
10805;SDS011;5455;53.224;6.000;2023-10-31T07:46:57;0.97;;;0.20;;
10805;SDS011;5455;53.224;6.000;2023-10-31T07:49:24;1.97;;;0.40;;
10805;SDS011;5455;53.224;6.000;2023-10-31T07:51:51;0.20;;;0.20;;
10805;SDS011;5455;53.224;6.000;2023-10-31T07:54:18;0.70;;;0.30;;
10805;SDS011;5455;53.224;6.000;2023-10-31T07:56:45;1.20;;;0.20;;
10805;SDS011;5455;53.224;6.000;2023-10-31T07:59:12;0.23;;;0.20;;
10805;SDS011;5455;53.224;6.000;2023-10-31T08:01:40;2.37;;;0.30;;
10805;SDS011;5455;53.224;6.000;2023-10-31T08:04:07;1.07;;;0.20;;
10805;SDS011;5455;53.224;6.000;2023-10-31T08:06:34;2.50;;;0.50;;
10805;SDS011;5455;53.224;6.000;2023-10-31T08:09:01;2.57;;;0.60;;
10805;SDS011;5455;53.224;6.000;2023-10-31T08:11:28;6.57;;;1.03;;
10805;SDS011;5455;53.224;6.000;2023-10-31T08:13:55;3.93;;;0.60;;
10805;SDS011;5455;53.224;6.000;2023-10-31T08:16:22;3.47;;;0.80;;
10805;SDS011;5455;53.224;6.000;2023-10-31T08:18:49;3.90;;;0.70;;
10805;SDS011;5455;53.224;6.000;2023-10-31T08:21:16;2.80;;;0.50;;
10805;SDS011;5455;53.224;6.000;2023-10-31T08:23:43;3.03;;;0.50;;
10805;SDS011;5455;53.224;6.000;2023-10-31T08:26:13;2.73;;;0.63;;
10805;SDS011;5455;53.224;6.000;2023-10-31T08:28:40;1.97;;;0.83;;
10805;SDS011;5455;53.224;6.000;2023-10-31T08:31:07;5.30;;;0.73;;
10805;SDS011;5455;53.224;6.000;2023-10-31T08:33:34;1.23;;;0.60;;
10805;SDS011;5455;53.224;6.000;2023-10-31T08:36:01;2.30;;;0.70;;
10805;SDS011;5455;53.224;6.000;2023-10-31T08:38:29;1.73;;;0.43;;
10805;SDS011;5455;53.224;6.000;2023-10-31T08:40:58;2.73;;;0.70;;
10805;SDS011;5455;53.224;6.000;2023-10-31T08:43:26;3.50;;;0.80;;
10805;SDS011;5455;53.224;6.000;2023-10-31T08:45:54;2.67;;;0.90;;
10805;SDS011;5455;53.224;6.000;2023-10-31T08:48:21;3.50;;;0.73;;
10805;SDS011;5455;53.224;6.000;2023-10-31T08:50:48;3.10;;;0.80;;
10805;SDS011;5455;53.224;6.000;2023-10-31T08:53:15;2.93;;;0.60;;
10805;SDS011;5455;53.224;6.000;2023-10-31T08:55:42;2.00;;;0.80;;
10805;SDS011;5455;53.224;6.000;2023-10-31T08:58:11;2.80;;;0.43;;
10805;SDS011;5455;53.224;6.000;2023-10-31T09:00:44;1.97;;;0.50;;
10805;SDS011;5455;53.224;6.000;2023-10-31T09:03:10;2.80;;;0.50;;
10805;SDS011;5455;53.224;6.000;2023-10-31T09:05:38;1.23;;;0.30;;
10805;SDS011;5455;53.224;6.000;2023-10-31T09:08:06;2.20;;;0.50;;
10805;SDS011;5455;53.224;6.000;2023-10-31T09:10:35;3.40;;;0.50;;
10805;SDS011;5455;53.224;6.000;2023-10-31T09:13:03;1.90;;;0.50;;
10805;SDS011;5455;53.224;6.000;2023-10-31T09:15:31;3.20;;;0.40;;
10805;SDS011;5455;53.224;6.000;2023-10-31T09:17:58;1.60;;;0.20;;
10805;SDS011;5455;53.224;6.000;2023-10-31T09:20:25;2.60;;;0.40;;
10805;SDS011;5455;53.224;6.000;2023-10-31T09:22:52;2.17;;;0.30;;
10805;SDS011;5455;53.224;6.000;2023-10-31T09:25:19;2.13;;;0.47;;
10805;SDS011;5455;53.224;6.000;2023-10-31T09:27:46;2.10;;;0.67;;
10805;SDS011;5455;53.224;6.000;2023-10-31T09:30:13;2.80;;;0.63;;
10805;SDS011;5455;53.224;6.000;2023-10-31T09:32:40;3.17;;;0.80;;
10805;SDS011;5455;53.224;6.000;2023-10-31T09:35:07;5.07;;;1.33;;
10805;SDS011;5455;53.224;6.000;2023-10-31T09:37:35;1.93;;;0.63;;
10805;SDS011;5455;53.224;6.000;2023-10-31T09:40:02;3.10;;;0.90;;
10805;SDS011;5455;53.224;6.000;2023-10-31T09:42:30;2.17;;;0.47;;
10805;SDS011;5455;53.224;6.000;2023-10-31T09:44:57;4.77;;;0.50;;
10805;SDS011;5455;53.224;6.000;2023-10-31T09:47:24;2.63;;;0.63;;
10805;SDS011;5455;53.224;6.000;2023-10-31T09:49:51;3.23;;;0.80;;
10805;SDS011;5455;53.224;6.000;2023-10-31T09:52:19;2.80;;;0.63;;
10805;SDS011;5455;53.224;6.000;2023-10-31T09:54:47;6.03;;;0.50;;
10805;SDS011;5455;53.224;6.000;2023-10-31T09:57:15;3.53;;;0.50;;
10805;SDS011;5455;53.224;6.000;2023-10-31T09:59:44;4.20;;;0.67;;
10805;SDS011;5455;53.224;6.000;2023-10-31T10:02:11;6.77;;;1.03;;
10805;SDS011;5455;53.224;6.000;2023-10-31T10:04:38;1.30;;;0.50;;
10805;SDS011;5455;53.224;6.000;2023-10-31T10:07:06;4.17;;;0.90;;
10805;SDS011;5455;53.224;6.000;2023-10-31T10:09:33;2.17;;;0.30;;
10805;SDS011;5455;53.224;6.000;2023-10-31T10:12:00;2.13;;;0.50;;
10805;SDS011;5455;53.224;6.000;2023-10-31T10:14:28;3.73;;;0.57;;
10805;SDS011;5455;53.224;6.000;2023-10-31T10:16:58;3.23;;;0.53;;
10805;SDS011;5455;53.224;6.000;2023-10-31T10:19:25;2.77;;;0.60;;
10805;SDS011;5455;53.224;6.000;2023-10-31T10:21:53;6.33;;;0.73;;
10805;SDS011;5455;53.224;6.000;2023-10-31T10:24:23;4.43;;;0.57;;
10805;SDS011;5455;53.224;6.000;2023-10-31T10:26:51;3.33;;;0.57;;
10805;SDS011;5455;53.224;6.000;2023-10-31T10:29:18;1.53;;;0.60;;
10805;SDS011;5455;53.224;6.000;2023-10-31T10:31:46;2.63;;;0.60;;
10805;SDS011;5455;53.224;6.000;2023-10-31T10:34:14;2.43;;;0.60;;
10805;SDS011;5455;53.224;6.000;2023-10-31T10:36:51;2.03;;;0.40;;
10805;SDS011;5455;53.224;6.000;2023-10-31T10:39:22;3.83;;;0.73;;
10805;SDS011;5455;53.224;6.000;2023-10-31T10:41:53;5.07;;;0.50;;
10805;SDS011;5455;53.224;6.000;2023-10-31T10:44:34;4.07;;;0.60;;
10805;SDS011;5455;53.224;6.000;2023-10-31T10:47:03;6.33;;;0.60;;
10805;SDS011;5455;53.224;6.000;2023-10-31T10:49:35;4.03;;;0.60;;
10805;SDS011;5455;53.224;6.000;2023-10-31T10:52:15;6.10;;;0.70;;
10805;SDS011;5455;53.224;6.000;2023-10-31T10:55:31;4.37;;;0.60;;
10805;SDS011;5455;53.224;6.000;2023-10-31T11:00:40;5.10;;;0.60;;
10805;SDS011;5455;53.224;6.000;2023-10-31T11:03:08;6.70;;;0.60;;
10805;SDS011;5455;53.224;6.000;2023-10-31T11:05:36;3.40;;;0.70;;
10805;SDS011;5455;53.224;6.000;2023-10-31T11:08:03;0.83;;;0.40;;
10805;SDS011;5455;53.224;6.000;2023-10-31T11:10:32;2.30;;;0.40;;
10805;SDS011;5455;53.224;6.000;2023-10-31T11:13:00;2.13;;;0.60;;
10805;SDS011;5455;53.224;6.000;2023-10-31T11:15:27;2.63;;;0.67;;
10805;SDS011;5455;53.224;6.000;2023-10-31T11:17:55;4.50;;;0.80;;
10805;SDS011;5455;53.224;6.000;2023-10-31T11:20:24;1.97;;;0.60;;
10805;SDS011;5455;53.224;6.000;2023-10-31T11:22:54;2.40;;;0.67;;
10805;SDS011;5455;53.224;6.000;2023-10-31T11:25:25;2.10;;;0.57;;
10805;SDS011;5455;53.224;6.000;2023-10-31T11:28:15;1.50;;;0.50;;
10805;SDS011;5455;53.224;6.000;2023-10-31T11:30:43;0.40;;;0.40;;
10805;SDS011;5455;53.224;6.000;2023-10-31T11:33:12;3.17;;;0.60;;
10805;SDS011;5455;53.224;6.000;2023-10-31T11:35:40;3.87;;;0.50;;
10805;SDS011;5455;53.224;6.000;2023-10-31T11:38:08;2.57;;;0.40;;
10805;SDS011;5455;53.224;6.000;2023-10-31T11:43:11;1.70;;;0.60;;
10805;SDS011;5455;53.224;6.000;2023-10-31T11:48:11;1.40;;;0.43;;
10805;SDS011;5455;53.224;6.000;2023-10-31T11:50:38;3.43;;;0.60;;
10805;SDS011;5455;53.224;6.000;2023-10-31T11:53:09;3.67;;;0.80;;
10805;SDS011;5455;53.224;6.000;2023-10-31T11:55:42;2.93;;;0.50;;
10805;SDS011;5455;53.224;6.000;2023-10-31T11:58:21;1.90;;;0.60;;
10805;SDS011;5455;53.224;6.000;2023-10-31T12:00:50;1.73;;;0.50;;
10805;SDS011;5455;53.224;6.000;2023-10-31T12:03:27;2.87;;;0.70;;
10805;SDS011;5455;53.224;6.000;2023-10-31T12:05:55;0.83;;;0.30;;
10805;SDS011;5455;53.224;6.000;2023-10-31T12:08:30;3.57;;;1.00;;
10805;SDS011;5455;53.224;6.000;2023-10-31T12:16:19;3.23;;;0.80;;
10805;SDS011;5455;53.224;6.000;2023-10-31T12:18:53;3.77;;;0.60;;
10805;SDS011;5455;53.224;6.000;2023-10-31T12:22:01;3.53;;;0.60;;
10805;SDS011;5455;53.224;6.000;2023-10-31T12:24:22;3.53;;;0.80;;
10805;SDS011;5455;53.224;6.000;2023-10-31T12:26:49;1.10;;;0.33;;
10805;SDS011;5455;53.224;6.000;2023-10-31T12:29:18;1.00;;;0.40;;
10805;SDS011;5455;53.224;6.000;2023-10-31T12:31:47;1.87;;;0.50;;
10805;SDS011;5455;53.224;6.000;2023-10-31T12:34:22;2.43;;;0.40;;
10805;SDS011;5455;53.224;6.000;2023-10-31T12:36:51;2.47;;;0.50;;
10805;SDS011;5455;53.224;6.000;2023-10-31T12:39:25;1.30;;;0.40;;
10805;SDS011;5455;53.224;6.000;2023-10-31T12:41:54;1.40;;;0.40;;
10805;SDS011;5455;53.224;6.000;2023-10-31T12:44:24;3.47;;;0.57;;
10805;SDS011;5455;53.224;6.000;2023-10-31T12:46:54;1.37;;;0.53;;
10805;SDS011;5455;53.224;6.000;2023-10-31T12:49:21;2.83;;;0.30;;
10805;SDS011;5455;53.224;6.000;2023-10-31T12:51:59;1.43;;;0.30;;
10805;SDS011;5455;53.224;6.000;2023-10-31T12:54:34;1.90;;;0.30;;
10805;SDS011;5455;53.224;6.000;2023-10-31T12:57:06;0.87;;;0.20;;
10805;SDS011;5455;53.224;6.000;2023-10-31T12:59:34;0.57;;;0.23;;
10805;SDS011;5455;53.224;6.000;2023-10-31T13:02:06;0.83;;;0.27;;
10805;SDS011;5455;53.224;6.000;2023-10-31T13:04:34;1.63;;;0.50;;
10805;SDS011;5455;53.224;6.000;2023-10-31T13:07:02;1.13;;;0.60;;
10805;SDS011;5455;53.224;6.000;2023-10-31T13:09:31;2.00;;;0.50;;
10805;SDS011;5455;53.224;6.000;2023-10-31T13:12:02;1.43;;;0.40;;
10805;SDS011;5455;53.224;6.000;2023-10-31T13:14:30;2.60;;;0.50;;
10805;SDS011;5455;53.224;6.000;2023-10-31T13:16:58;1.17;;;0.30;;
10805;SDS011;5455;53.224;6.000;2023-10-31T13:19:26;6.80;;;0.50;;
10805;SDS011;5455;53.224;6.000;2023-10-31T13:21:53;1.50;;;0.40;;
10805;SDS011;5455;53.224;6.000;2023-10-31T13:24:20;1.30;;;0.40;;
10805;SDS011;5455;53.224;6.000;2023-10-31T13:26:46;1.13;;;0.40;;
10805;SDS011;5455;53.224;6.000;2023-10-31T13:29:19;1.10;;;0.77;;
10805;SDS011;5455;53.224;6.000;2023-10-31T13:31:47;3.50;;;1.27;;
10805;SDS011;5455;53.224;6.000;2023-10-31T13:34:14;1.60;;;0.60;;
10805;SDS011;5455;53.224;6.000;2023-10-31T13:36:42;3.87;;;1.37;;
10805;SDS011;5455;53.224;6.000;2023-10-31T13:39:11;3.13;;;1.03;;
10805;SDS011;5455;53.224;6.000;2023-10-31T13:41:38;2.90;;;0.50;;
10805;SDS011;5455;53.224;6.000;2023-10-31T13:44:05;3.00;;;0.20;;
10805;SDS011;5455;53.224;6.000;2023-10-31T13:46:33;1.93;;;0.50;;
10805;SDS011;5455;53.224;6.000;2023-10-31T13:49:00;0.90;;;0.40;;
10805;SDS011;5455;53.224;6.000;2023-10-31T13:51:27;1.37;;;0.53;;
10805;SDS011;5455;53.224;6.000;2023-10-31T13:53:54;2.53;;;0.50;;
10805;SDS011;5455;53.224;6.000;2023-10-31T13:56:21;1.10;;;0.40;;
10805;SDS011;5455;53.224;6.000;2023-10-31T13:58:48;2.47;;;0.30;;
10805;SDS011;5455;53.224;6.000;2023-10-31T14:01:15;0.90;;;0.50;;
10805;SDS011;5455;53.224;6.000;2023-10-31T14:03:42;0.93;;;0.40;;
10805;SDS011;5455;53.224;6.000;2023-10-31T14:06:11;1.37;;;0.50;;
10805;SDS011;5455;53.224;6.000;2023-10-31T14:08:39;1.17;;;0.53;;
10805;SDS011;5455;53.224;6.000;2023-10-31T14:11:06;2.83;;;0.63;;
10805;SDS011;5455;53.224;6.000;2023-10-31T14:13:37;1.33;;;0.30;;
10805;SDS011;5455;53.224;6.000;2023-10-31T14:16:06;2.20;;;0.60;;
10805;SDS011;5455;53.224;6.000;2023-10-31T14:18:33;1.77;;;0.43;;
10805;SDS011;5455;53.224;6.000;2023-10-31T14:21:00;2.47;;;0.70;;
10805;SDS011;5455;53.224;6.000;2023-10-31T14:23:27;2.13;;;0.50;;
10805;SDS011;5455;53.224;6.000;2023-10-31T14:25:54;2.10;;;0.50;;
10805;SDS011;5455;53.224;6.000;2023-10-31T14:28:21;0.67;;;0.50;;
10805;SDS011;5455;53.224;6.000;2023-10-31T14:30:48;2.77;;;0.60;;
10805;SDS011;5455;53.224;6.000;2023-10-31T14:33:15;0.93;;;0.70;;
10805;SDS011;5455;53.224;6.000;2023-10-31T14:35:42;0.93;;;0.50;;
10805;SDS011;5455;53.224;6.000;2023-10-31T14:38:09;0.97;;;0.30;;
10805;SDS011;5455;53.224;6.000;2023-10-31T14:40:36;2.80;;;0.43;;
10805;SDS011;5455;53.224;6.000;2023-10-31T14:43:03;2.23;;;0.90;;
10805;SDS011;5455;53.224;6.000;2023-10-31T14:45:30;3.10;;;1.50;;
10805;SDS011;5455;53.224;6.000;2023-10-31T14:47:57;2.97;;;1.63;;
10805;SDS011;5455;53.224;6.000;2023-10-31T14:50:24;5.53;;;2.47;;
10805;SDS011;5455;53.224;6.000;2023-10-31T14:52:51;1.43;;;0.70;;
10805;SDS011;5455;53.224;6.000;2023-10-31T14:55:18;1.33;;;0.50;;
10805;SDS011;5455;53.224;6.000;2023-10-31T14:57:44;3.90;;;1.93;;
10805;SDS011;5455;53.224;6.000;2023-10-31T15:00:12;2.73;;;1.20;;
10805;SDS011;5455;53.224;6.000;2023-10-31T15:02:40;3.53;;;1.70;;
10805;SDS011;5455;53.224;6.000;2023-10-31T15:05:07;2.43;;;1.00;;
10805;SDS011;5455;53.224;6.000;2023-10-31T15:07:36;1.33;;;0.43;;
10805;SDS011;5455;53.224;6.000;2023-10-31T15:10:04;0.77;;;0.40;;
10805;SDS011;5455;53.224;6.000;2023-10-31T15:12:31;1.17;;;0.40;;
10805;SDS011;5455;53.224;6.000;2023-10-31T15:14:59;1.27;;;0.27;;
10805;SDS011;5455;53.224;6.000;2023-10-31T15:17:26;1.27;;;0.40;;
10805;SDS011;5455;53.224;6.000;2023-10-31T15:19:53;1.23;;;0.50;;